Date,TemperatureHighF,TemperatureAvgF,TemperatureLowF,DewpointHighF,DewpointAvgF,DewpointLowF,HumidityHigh,HumidityAvg,HumidityLow,PressureMaxIn,PressureMinIn,WindSpeedMaxMPH,WindSpeedAvgMPH,GustSpeedMaxMPH,PrecipitationSumIn
2013-5-1,77.0,66.3,56.5,61.0,55.8,49.3,100,70,51,30.04,29.86,17,3,17,0.00
2013-5-2,61.9,55.2,41.2,61.7,53.4,37.5,100,94,71,30.16,29.98,13,2,13,0.39
2013-5-3,49.1,41.4,35.4,40.4,33.3,28.4,98,75,48,30.13,29.95,18,5,18,0.35
2013-5-4,46.6,41.7,36.1,39.9,35.1,30.1,93,78,64,29.98,29.86,13,4,13,0.04
2013-5-5,64.2,48.2,32.0,45.3,38.3,32.0,100,72,45,30.04,29.92,15,4,15,0.00
2013-5-6,70.7,58.0,47.5,50.7,47.2,44.8,95,70,45,30.04,29.95,14,4,14,0.00
2013-5-7,76.4,66.4,49.3,55.3,52.0,46.5,96,63,42,30.04,29.95,12,2,12,0.00
2013-5-8,81.7,66.8,52.0,58.2,54.5,52.0,100,69,41,30.04,29.89,10,2,10,0.00
2013-5-9,79.0,67.6,60.2,63.0,57.1,52.5,96,71,42,30.01,29.86,15,2,15,0.00
2013-5-10,77.2,66.9,59.3,63.5,57.3,49.5,100,74,44,30.01,29.86,15,3,15,0.20
2013-5-11,77.3,64.3,50.7,52.5,48.1,36.0,98,59,40,30.16,29.98,14,3,14,0.00
2013-5-12,69.4,56.9,39.5,46.1,39.7,34.2,96,55,37,30.25,30.10,12,2,12,0.00
2013-5-13,81.5,63.0,44.8,54.2,48.0,42.0,97,62,36,30.19,30.01,15,2,15,0.00
2013-5-14,86.7,68.4,49.6,58.6,54.3,49.6,100,66,36,30.07,29.95,15,2,15,0.00
2013-5-15,77.9,65.4,53.6,68.3,59.0,52.4,100,82,53,30.01,29.86,9,1,9,0.24
2013-5-16,67.3,63.4,60.2,64.9,60.6,53.4,100,91,68,29.89,29.80,10,2,10,0.63
2013-5-17,82.0,70.6,61.1,69.1,62.8,59.8,100,79,49,29.89,29.80,9,2,9,0.04
2013-5-18,84.4,74.4,65.5,68.5,66.8,64.9,100,79,54,29.92,29.80,12,3,12,0.00
2013-5-19,86.2,76.2,66.2,70.9,64.8,60.4,100,71,44,29.83,29.72,16,4,16,2.78
2013-5-20,81.8,74.8,62.4,66.9,63.0,60.2,100,67,57,29.95,29.69,29,3,29,0.20
2013-5-21,67.8,61.7,59.7,65.1,61.5,59.7,100,99,82,29.92,29.69,27,3,27,1.93
2013-5-22,78.2,65.7,56.6,60.6,57.2,54.3,100,77,48,29.89,29.78,16,3,16,0.04
2013-5-23,77.3,66.6,55.2,66.6,60.2,55.2,100,82,57,30.10,29.89,6,1,6,0.00
2013-5-24,74.5,66.1,58.3,60.7,52.4,47.9,90,62,49,30.25,30.10,13,3,13,0.00
2013-5-25,80.6,67.4,53.6,60.6,53.9,46.8,98,64,50,30.25,30.07,10,2,10,0.00
2013-5-26,83.8,72.5,59.9,64.0,59.7,55.2,97,66,47,30.10,29.98,17,3,17,0.00
2013-5-27,83.1,74.2,65.6,63.4,60.9,59.1,86,65,49,30.01,29.83,15,4,15,0.00
2013-5-28,83.3,75.5,67.1,63.3,60.9,58.1,87,62,46,29.92,29.80,13,4,13,0.00
2013-5-29,82.7,75.4,69.1,63.7,61.3,59.5,76,62,49,29.92,29.78,10,4,13,0.00
2013-5-30,77.5,71.1,63.5,68.9,63.3,53.2,100,78,54,29.86,29.75,23,4,23,1.54
2013-5-31,86.5,76.1,67.8,70.0,67.7,65.9,100,77,52,29.83,29.66,10,2,10,0.00